Time;durP1;ratioP1;P1;durP2;ratioP2;P2;SDS_P1;SDS_P2;PMS_P1;PMS_P2;Temp;Humidity;BMP_temperature;BMP_pressure;BME280_temperature;BME280_humidity;BME280_pressure;Samples;Min_cycle;Max_cycle;Signal;HPM_P1;HPM_P2
2022/04/12 00:01:33;;;;;;;11.40;10.80;;;;;;;3.07;61.39;93200.84;5014491;28;20187;-77
2022/04/12 00:04:00;;;;;;;11.70;10.77;;;;;;;3.18;61.35;93210.44;5007281;28;20229;-77
2022/04/12 00:06:26;;;;;;;9.20;8.87;;;;;;;3.03;60.71;93216.00;5008696;28;20932;-75
2022/04/12 00:08:51;;;;;;;10.17;9.43;;;;;;;2.92;60.63;93200.47;5008366;28;20239;-77
2022/04/12 00:11:17;;;;;;;10.60;9.80;;;;;;;2.96;60.20;93204.19;5009303;28;20207;-77
2022/04/12 00:13:43;;;;;;;10.03;9.37;;;;;;;2.97;60.32;93195.44;5008930;28;20243;-77
2022/04/12 00:16:08;;;;;;;11.77;10.63;;;;;;;3.13;60.08;93203.34;5008667;28;20214;-77
2022/04/12 00:21:18;;;;;;;9.47;9.07;;;;;;;2.98;60.00;93181.53;5008248;28;20239;-77
2022/04/12 00:23:43;;;;;;;10.63;9.93;;;;;;;2.98;59.49;93177.19;5000153;28;20231;-77
2022/04/12 00:26:09;;;;;;;11.00;10.47;;;;;;;2.88;60.20;93189.78;4987558;28;20200;-77
2022/04/12 00:28:34;;;;;;;10.00;9.60;;;;;;;2.71;61.08;93163.03;4993934;28;20242;-77
2022/04/12 00:30:59;;;;;;;9.77;9.37;;;;;;;2.89;61.61;93175.13;5011254;28;20184;-77
2022/04/12 00:33:25;;;;;;;9.63;9.30;;;;;;;2.91;59.98;93183.44;5008093;28;20219;-77
2022/04/12 00:35:50;;;;;;;10.67;10.03;;;;;;;2.95;59.68;93177.63;5009609;28;20188;-77
2022/04/12 00:38:18;;;;;;;10.87;10.37;;;;;;;3.05;59.58;93174.53;5008710;28;20231;-77
2022/04/12 00:40:45;;;;;;;9.37;8.90;;;;;;;3.05;59.15;93184.84;5008838;28;20183;-77
2022/04/12 00:43:11;;;;;;;10.43;9.83;;;;;;;3.06;59.06;93183.81;5007370;28;20231;-77
2022/04/12 00:45:36;;;;;;;10.33;9.83;;;;;;;2.95;59.35;93175.03;5008962;28;20199;-77
2022/04/12 00:48:02;;;;;;;9.33;8.93;;;;;;;2.93;60.72;93163.34;5008956;28;20192;-77
2022/04/12 00:50:28;;;;;;;9.03;8.63;;;;;;;2.99;60.88;93177.94;5009291;28;20195;-77
2022/04/12 00:52:56;;;;;;;9.83;9.33;;;;;;;3.06;58.84;93181.25;5008797;28;20190;-76
2022/04/12 00:55:22;;;;;;;9.63;9.23;;;;;;;3.04;59.13;93167.78;5009114;28;20192;-77
2022/04/12 00:57:48;;;;;;;10.13;9.63;;;;;;;3.26;58.73;93171.44;5008740;28;20218;-77
2022/04/12 01:00:16;;;;;;;10.07;9.67;;;;;;;3.08;59.34;93164.53;5008213;28;20187;-77
2022/04/12 01:02:42;;;;;;;10.57;10.07;;;;;;;3.23;57.97;93171.88;5009595;28;20204;-77
2022/04/12 01:05:08;;;;;;;10.13;9.53;;;;;;;2.88;58.39;93137.47;5008556;28;20234;-77
2022/04/12 01:07:34;;;;;;;10.23;9.73;;;;;;;3.15;58.96;93177.34;5008786;28;20184;-77
2022/04/12 01:10:00;;;;;;;10.10;9.33;;;;;;;2.98;58.77;93153.19;5007207;28;20227;-77
2022/04/12 01:12:30;;;;;;;9.80;9.40;;;;;;;3.12;59.25;93185.53;5008857;28;20218;-77
2022/04/12 01:15:17;;;;;;;10.23;9.63;;;;;;;3.03;59.48;93179.09;5008809;28;20672;-77
2022/04/12 01:17:44;;;;;;;9.37;8.87;;;;;;;2.74;59.15;93141.97;5008518;28;20203;-77
2022/04/12 01:20:12;;;;;;;10.47;9.97;;;;;;;2.85;59.84;93164.44;5008410;28;20280;-77
2022/04/12 01:22:48;;;;;;;11.90;11.17;;;;;;;3.04;57.99;93172.94;5009211;28;20243;-77
2022/04/12 01:25:13;;;;;;;10.70;10.23;;;;;;;2.89;58.33;93167.38;5008577;28;20239;-76
2022/04/12 01:27:39;;;;;;;9.73;9.23;;;;;;;2.76;59.64;93149.50;5010199;28;20258;-76
2022/04/12 01:30:06;;;;;;;9.40;9.00;;;;;;;2.79;59.90;93160.16;5012908;28;20216;-76
2022/04/12 01:32:31;;;;;;;9.60;9.20;;;;;;;2.70;59.61;93155.53;5013053;28;20191;-76
2022/04/12 01:34:56;;;;;;;10.03;9.60;;;;;;;2.66;59.88;93144.09;5011669;28;20227;-77
2022/04/12 01:37:22;;;;;;;9.63;9.23;;;;;;;3.18;58.55;93180.28;5011922;28;20196;-77
2022/04/12 01:39:47;;;;;;;10.70;10.10;;;;;;;3.08;59.11;93179.25;5012007;28;20250;-77
2022/04/12 01:42:13;;;;;;;10.50;9.33;;;;;;;3.09;58.15;93176.44;5012209;28;20303;-77
2022/04/12 01:44:38;;;;;;;9.60;9.20;;;;;;;2.71;58.06;93110.69;5011351;28;20246;-77
2022/04/12 01:47:04;;;;;;;9.10;8.57;;;;;;;3.04;59.19;93168.56;5012711;28;20196;-77
2022/04/12 01:49:29;;;;;;;9.60;9.17;;;;;;;2.96;59.06;93168.88;5011796;28;20219;-77
2022/04/12 01:51:55;;;;;;;10.03;9.63;;;;;;;3.00;59.06;93171.81;5012299;28;20195;-77
2022/04/12 01:54:20;;;;;;;9.90;9.40;;;;;;;2.89;59.71;93169.97;5011754;28;20227;-77
2022/04/12 01:56:46;;;;;;;10.00;9.60;;;;;;;2.74;60.27;93167.00;5012310;28;20219;-77
2022/04/12 01:59:11;;;;;;;9.23;8.83;;;;;;;2.78;60.23;93162.97;5011852;28;20241;-77
2022/04/12 02:01:37;;;;;;;9.93;9.53;;;;;;;2.77;60.85;93158.81;5010844;28;20200;-77
2022/04/12 02:04:02;;;;;;;10.37;9.77;;;;;;;2.72;59.58;93153.53;5011667;28;20227;-77
2022/04/12 02:06:28;;;;;;;10.43;9.93;;;;;;;2.83;60.00;93150.22;5012460;28;20211;-77
2022/04/12 02:08:53;;;;;;;13.37;9.90;;;;;;;2.78;60.43;93168.13;5011922;28;20235;-76
2022/04/12 02:11:18;;;;;;;9.63;9.23;;;;;;;2.89;60.29;93159.66;5011463;28;20218;-77
2022/04/12 02:13:44;;;;;;;10.40;9.90;;;;;;;2.68;60.51;93144.63;5011922;28;20245;-77
2022/04/12 02:16:09;;;;;;;10.43;9.83;;;;;;;2.81;59.39;93154.78;5012014;28;20688;-77
2022/04/12 02:18:35;;;;;;;10.23;9.73;;;;;;;2.95;59.04;93158.78;5010909;28;20235;-73
2022/04/12 02:21:00;;;;;;;10.10;9.57;;;;;;;2.88;59.89;93143.38;5011708;28;21022;-75
2022/04/12 02:23:25;;;;;;;9.30;8.90;;;;;;;2.82;59.40;93148.63;5010721;28;20741;-75
2022/04/12 02:25:51;;;;;;;9.87;9.33;;;;;;;2.62;60.89;93145.50;5010824;28;20194;-75
2022/04/12 02:28:16;;;;;;;10.23;9.73;;;;;;;2.72;59.92;93156.91;5010951;28;20226;-75
2022/04/12 02:30:43;;;;;;;9.57;9.07;;;;;;;2.76;59.80;93154.66;5011907;28;20251;-75
2022/04/12 02:33:09;;;;;;;11.13;10.47;;;;;;;2.67;60.85;93150.81;5010080;28;20219;-76
2022/04/12 02:35:34;;;;;;;10.03;9.33;;;;;;;2.53;61.94;93150.19;5011729;28;20179;-76
2022/04/12 02:38:00;;;;;;;9.07;8.67;;;;;;;2.53;61.04;93154.53;5011425;28;20184;-75
2022/04/12 02:40:26;;;;;;;8.87;8.53;;;;;;;2.35;62.73;93150.19;5010650;28;20195;-76
2022/04/12 02:42:51;;;;;;;10.33;9.83;;;;;;;2.40;63.85;93165.00;5010986;28;20226;-76
2022/04/12 02:45:17;;;;;;;10.33;9.83;;;;;;;2.29;63.03;93158.78;5011109;28;20194;-75
2022/04/12 02:47:42;;;;;;;9.53;9.10;;;;;;;2.30;64.79;93157.78;5010591;28;20215;-76
2022/04/12 02:50:08;;;;;;;11.23;10.47;;;;;;;2.30;63.21;93155.22;5011062;28;20258;-76
2022/04/12 02:52:33;;;;;;;10.23;9.70;;;;;;;2.22;64.53;93154.69;5011040;28;20223;-76
2022/04/12 02:54:59;;;;;;;11.07;10.47;;;;;;;2.12;66.19;93146.72;5010934;28;20227;-76
2022/04/12 02:57:24;;;;;;;11.53;10.93;;;;;;;1.85;66.13;93124.78;5011121;28;20201;-76
2022/04/12 02:59:49;;;;;;;10.87;10.17;;;;;;;1.73;67.03;93118.78;5010994;28;20223;-76
2022/04/12 03:02:15;;;;;;;11.20;10.43;;;;;;;2.01;67.78;93161.06;5010656;28;20219;-76
2022/04/12 03:04:40;;;;;;;11.00;10.30;;;;;;;1.77;68.75;93148.22;5010735;28;20242;-76
2022/04/12 03:07:07;;;;;;;11.20;10.17;;;;;;;1.53;69.29;93148.03;5011308;28;20222;-76
2022/04/12 03:09:32;;;;;;;9.70;9.20;;;;;;;1.60;68.35;93143.59;5010254;28;20585;-76
2022/04/12 03:11:58;;;;;;;9.57;9.07;;;;;;;1.51;68.36;93133.78;5010922;28;20227;-76
2022/04/12 03:14:23;;;;;;;10.43;9.63;;;;;;;1.27;70.09;93132.81;5010137;28;20238;-76
2022/04/12 03:16:48;;;;;;;10.53;10.00;;;;;;;1.52;70.01;93150.81;5010530;28;20207;-76
2022/04/12 03:19:14;;;;;;;9.60;9.20;;;;;;;1.20;70.57;93139.78;5010002;28;20222;-76
2022/04/12 03:21:42;;;;;;;9.90;9.37;;;;;;;1.48;69.64;93154.78;5009355;28;20231;-76
2022/04/12 03:24:08;;;;;;;9.60;9.20;;;;;;;1.42;68.63;93160.78;5010715;28;20231;-75
2022/04/12 03:26:34;;;;;;;11.13;10.63;;;;;;;1.59;69.54;93161.81;5009157;28;20188;-76
2022/04/12 03:28:59;;;;;;;10.23;9.73;;;;;;;1.52;66.60;93143.09;5010219;28;20296;-76
2022/04/12 03:31:25;;;;;;;9.07;8.70;;;;;;;1.30;68.76;93137.53;5011054;28;20187;-76
2022/04/12 03:33:50;;;;;;;9.93;9.47;;;;;;;1.56;68.10;93162.25;5010139;28;20235;-76
2022/04/12 03:36:16;;;;;;;9.23;8.83;;;;;;;1.36;69.44;93165.00;5010673;28;20251;-76
2022/04/12 03:38:48;;;;;;;9.17;8.87;;;;;;;1.32;68.96;93157.91;5009985;28;20231;-76
2022/04/12 03:41:22;;;;;;;10.83;10.23;;;;;;;1.10;69.11;93131.75;5009213;28;20203;-75
2022/04/12 03:43:49;;;;;;;9.37;9.00;;;;;;;1.39;68.74;93171.50;5009142;28;20286;-76
2022/04/12 03:46:15;;;;;;;10.10;9.70;;;;;;;1.06;69.63;93146.00;5010034;28;20207;-76
2022/04/12 03:48:40;;;;;;;9.73;9.27;;;;;;;1.10;70.19;93151.53;5009584;28;20250;-75
2022/04/12 03:51:06;;;;;;;9.30;8.90;;;;;;;1.23;70.34;93170.22;5006892;28;20198;-75
2022/04/12 03:53:31;;;;;;;9.83;9.13;;;;;;;1.29;70.39;93159.09;5009276;28;20246;-76
2022/04/12 03:55:57;;;;;;;10.53;10.13;;;;;;;1.26;69.98;93169.78;5009444;28;20195;-76
2022/04/12 03:58:23;;;;;;;10.57;10.17;;;;;;;1.28;69.94;93154.97;5007137;28;20242;-77
2022/04/12 04:00:49;;;;;;;9.47;9.07;;;;;;;1.29;69.35;93171.94;5009324;28;20215;-76
2022/04/12 04:03:17;;;;;;;9.53;9.20;;;;;;;1.23;69.27;93170.22;5008798;28;20223;-76
2022/04/12 04:05:43;;;;;;;9.07;8.77;;;;;;;1.31;68.48;93158.88;5007858;28;20191;-77
2022/04/12 04:08:09;;;;;;;9.33;9.03;;;;;;;1.45;67.94;93178.38;5008191;28;20227;-73
2022/04/12 04:10:34;;;;;;;8.70;8.40;;;;;;;1.58;67.64;93170.56;5009501;28;20184;-73
2022/04/12 04:13:01;;;;;;;10.27;9.80;;;;;;;1.59;67.22;93178.06;5008387;28;20817;-73
2022/04/12 04:15:27;;;;;;;9.30;8.90;;;;;;;1.72;67.97;93182.31;5010454;28;20230;-74
2022/04/12 04:17:52;;;;;;;9.53;9.13;;;;;;;1.70;68.21;93176.59;5008648;28;20199;-75
2022/04/12 04:20:19;;;;;;;10.37;9.27;;;;;;;1.79;68.74;93183.03;5010360;28;20192;-77
2022/04/12 04:22:44;;;;;;;12.80;10.20;;;;;;;1.79;69.22;93183.03;5009497;28;20243;-74
2022/04/12 04:25:15;;;;;;;9.70;9.30;;;;;;;1.83;69.10;93170.53;5009974;28;20222;-80
2022/04/12 04:27:41;;;;;;;9.60;9.20;;;;;;;1.85;70.36;93184.78;5008853;28;20184;-84
2022/04/12 04:30:08;;;;;;;8.47;8.17;;;;;;;1.94;70.22;93193.00;5009395;28;20890;-77
2022/04/12 04:32:34;;;;;;;7.70;7.40;;;;;;;2.07;70.39;93185.19;5009803;28;20203;-72
2022/04/12 04:35:00;;;;;;;8.63;8.23;;;;;;;2.08;70.04;93179.81;5007826;28;20223;-76
2022/04/12 04:37:26;;;;;;;9.57;9.10;;;;;;;2.11;70.83;93181.16;5009978;28;20251;-76
2022/04/12 04:39:52;;;;;;;9.37;8.97;;;;;;;2.17;72.09;93193.19;5008853;28;20294;-74
2022/04/12 04:42:20;;;;;;;10.17;9.67;;;;;;;2.34;72.09;93191.63;5009224;28;20271;-75
2022/04/12 04:44:49;;;;;;;8.77;8.47;;;;;;;2.42;70.86;93186.97;5009234;28;20243;-74
2022/04/12 04:47:15;;;;;;;9.47;9.07;;;;;;;2.54;71.00;93192.97;5024422;28;20462;-75
2022/04/12 04:49:40;;;;;;;9.90;9.50;;;;;;;2.85;69.96;93197.16;5008959;28;20226;-74
2022/04/12 04:52:06;;;;;;;9.30;8.70;;;;;;;2.94;68.30;93194.06;5008414;28;20199;-75
2022/04/12 04:54:31;;;;;;;13.13;9.63;;;;;;;3.15;66.66;93203.94;5008890;28;20306;-75
2022/04/12 04:56:57;;;;;;;9.30;8.80;;;;;;;3.15;64.62;93179.94;5009575;28;20205;-75
2022/04/12 04:59:22;;;;;;;10.90;10.10;;;;;;;3.58;61.91;93210.69;5009011;28;20679;-74
2022/04/12 05:01:48;;;;;;;11.50;10.90;;;;;;;3.83;60.11;93211.28;5008723;28;20192;-75
2022/04/12 05:04:13;;;;;;;10.73;9.93;;;;;;;3.85;60.64;93207.47;5010991;28;20235;-74
2022/04/12 05:06:38;;;;;;;9.97;9.37;;;;;;;3.84;60.30;93207.69;5012848;28;20259;-74
2022/04/12 05:09:04;;;;;;;10.53;9.83;;;;;;;3.76;59.82;93190.72;5010379;28;20335;-74
2022/04/12 05:11:31;;;;;;;10.30;9.67;;;;;;;3.79;60.73;93174.78;5011671;28;20183;-75
2022/04/12 05:13:57;;;;;;;10.83;10.23;;;;;;;3.85;61.07;93212.63;5011356;28;20223;-78
2022/04/12 05:16:22;;;;;;;10.33;9.73;;;;;;;4.06;60.65;93213.88;5010176;28;20275;-77
2022/04/12 05:18:48;;;;;;;10.70;10.10;;;;;;;4.30;59.97;93211.06;5011328;28;20233;-77
2022/04/12 05:21:13;;;;;;;11.63;10.77;;;;;;;4.27;59.37;93208.16;5011787;28;20239;-77
2022/04/12 05:23:38;;;;;;;11.37;10.67;;;;;;;4.27;58.85;93192.66;5011908;28;20331;-77
2022/04/12 05:26:04;;;;;;;11.87;11.03;;;;;;;3.86;60.76;93190.94;5011539;28;20215;-76
2022/04/12 05:28:29;;;;;;;12.40;11.53;;;;;;;4.15;60.51;93192.66;5011418;28;20262;-77
2022/04/12 05:30:55;;;;;;;11.43;10.73;;;;;;;4.38;59.56;93222.88;5012259;28;20199;-77
2022/04/12 05:33:21;;;;;;;11.83;10.93;;;;;;;4.19;60.88;93224.00;5010448;28;20243;-76
2022/04/12 05:35:46;;;;;;;11.23;10.50;;;;;;;4.45;60.74;93215.78;5011405;28;20195;-76
2022/04/12 05:38:12;;;;;;;12.73;11.83;;;;;;;4.19;61.53;93211.88;5011375;28;20239;-77
2022/04/12 05:40:37;;;;;;;12.10;11.30;;;;;;;4.55;60.37;93219.38;5010956;28;20199;-77
2022/04/12 05:43:03;;;;;;;11.50;10.90;;;;;;;4.44;60.85;93221.97;5009835;28;20219;-76
2022/04/12 05:45:28;;;;;;;13.17;12.13;;;;;;;4.46;60.24;93214.78;5008844;28;20468;-70
2022/04/12 05:47:55;;;;;;;12.70;11.87;;;;;;;4.29;60.39;93216.47;5010285;28;20187;-69
2022/04/12 05:50:23;;;;;;;12.57;11.77;;;;;;;4.67;59.60;93207.22;5011620;28;20187;-70
2022/04/12 05:52:49;;;;;;;12.27;11.63;;;;;;;4.89;58.80;93199.63;5010529;28;20184;-75
2022/04/12 05:55:16;;;;;;;10.90;10.20;;;;;;;5.73;56.96;93209.16;5010165;28;20211;-75
2022/04/12 05:58:03;;;;;;;12.53;11.83;;;;;;;8.02;50.60;93220.13;5009544;28;20213;-74
2022/04/12 06:00:34;;;;;;;11.23;10.63;;;;;;;10.12;45.54;93216.94;5010126;28;20222;-74
2022/04/12 06:03:02;;;;;;;13.00;11.87;;;;;;;11.87;40.28;93223.56;5010271;28;20235;-74
2022/04/12 06:05:30;;;;;;;12.53;11.73;;;;;;;9.81;44.32;93208.28;5010060;28;20251;-74
2022/04/12 06:07:56;;;;;;;12.23;11.43;;;;;;;8.04;48.16;93229.28;5026354;28;20234;-74
2022/04/12 06:10:22;;;;;;;11.77;10.90;;;;;;;7.10;51.28;93232.44;5011127;28;20187;-74
2022/04/12 06:12:49;;;;;;;12.27;11.57;;;;;;;6.61;52.11;93220.41;5004090;28;20187;-75
2022/04/12 06:15:15;;;;;;;12.03;11.27;;;;;;;6.08;54.52;93220.16;5010953;28;20644;-74
2022/04/12 06:17:41;;;;;;;12.77;11.97;;;;;;;5.35;56.69;93196.09;5011035;28;20203;-76
2022/04/12 06:20:13;;;;;;;12.93;12.03;;;;;;;5.56;56.11;93235.06;5010950;28;20214;-76
2022/04/12 06:22:39;;;;;;;10.87;10.17;;;;;;;5.78;56.84;93237.75;5011082;28;20251;-76
2022/04/12 06:25:06;;;;;;;11.97;11.07;;;;;;;5.54;55.90;93207.81;5011368;28;20251;-76
2022/04/12 06:27:34;;;;;;;12.23;11.50;;;;;;;6.11;55.23;93245.59;5011511;28;20184;-75
2022/04/12 06:30:08;;;;;;;11.17;10.37;;;;;;;6.12;54.88;93250.53;5010221;28;20219;-75
2022/04/12 06:32:35;;;;;;;13.53;12.03;;;;;;;6.38;54.46;93238.75;5011098;28;20283;-76
2022/04/12 06:35:01;;;;;;;12.43;11.63;;;;;;;6.50;54.56;93245.44;5010124;28;20227;-75
2022/04/12 06:37:27;;;;;;;12.57;11.77;;;;;;;6.50;53.72;93244.63;5011672;28;20191;-75
2022/04/12 06:39:53;;;;;;;12.33;11.40;;;;;;;6.24;54.85;93246.06;5010810;28;20223;-75
2022/04/12 06:42:19;;;;;;;11.63;10.83;;;;;;;6.36;54.45;93248.56;5011199;28;20689;-75
2022/04/12 06:44:45;;;;;;;12.57;11.57;;;;;;;6.40;53.95;93252.25;5010794;28;20219;-74
2022/04/12 06:47:10;;;;;;;12.43;11.73;;;;;;;6.17;53.16;93240.25;5010240;28;20247;-75
2022/04/12 06:49:36;;;;;;;12.57;11.67;;;;;;;6.23;54.20;93244.50;5010633;28;20302;-74
2022/04/12 06:52:01;;;;;;;12.70;11.57;;;;;;;6.44;52.45;93243.00;5011049;28;20202;-74
2022/04/12 06:54:27;;;;;;;13.37;12.37;;;;;;;6.34;52.95;93235.06;5010427;28;20295;-75
2022/04/12 06:56:52;;;;;;;12.20;11.03;;;;;;;6.57;53.34;93219.28;5011068;28;20229;-75
2022/04/12 06:59:18;;;;;;;13.73;12.43;;;;;;;6.94;52.85;93245.50;5010080;28;20251;-75
2022/04/12 07:01:43;;;;;;;12.67;11.77;;;;;;;6.97;53.08;93245.78;5010619;28;20251;-75
2022/04/12 07:04:09;;;;;;;13.37;11.97;;;;;;;6.52;52.14;93242.59;5010274;28;20247;-74
2022/04/12 07:06:35;;;;;;;13.03;11.83;;;;;;;6.29;53.89;93224.59;5009972;28;20176;-74
2022/04/12 07:09:01;;;;;;;13.67;12.50;;;;;;;6.61;52.43;93232.59;5010389;28;20239;-75
2022/04/12 07:11:27;;;;;;;14.17;13.13;;;;;;;6.97;52.88;93251.00;5011501;28;20192;-75
2022/04/12 07:13:52;;;;;;;12.47;11.67;;;;;;;6.83;50.11;93231.59;5009587;28;20866;-75
2022/04/12 07:16:18;;;;;;;12.80;12.00;;;;;;;6.95;51.55;93221.88;5010381;28;21029;-74
2022/04/12 07:18:43;;;;;;;13.37;12.27;;;;;;;6.68;54.25;93226.19;5009994;28;20251;-74
2022/04/12 07:21:08;;;;;;;14.37;13.10;;;;;;;7.01;51.83;93241.69;5009738;28;20223;-74
2022/04/12 07:23:36;;;;;;;14.57;13.27;;;;;;;7.11;51.12;93251.41;5009738;28;20298;-73
2022/04/12 07:26:03;;;;;;;12.50;11.57;;;;;;;6.83;51.63;93243.78;5009940;28;20194;-72
2022/04/12 07:28:28;;;;;;;12.53;11.47;;;;;;;7.06;53.09;93249.53;5009584;28;20250;-73
2022/04/12 07:30:54;;;;;;;13.37;12.13;;;;;;;7.33;51.51;93260.75;5010592;28;20215;-73
2022/04/12 07:33:19;;;;;;;12.50;11.50;;;;;;;7.23;51.22;93255.47;5009767;28;20227;-74
2022/04/12 07:35:45;;;;;;;11.30;10.60;;;;;;;7.37;48.23;93243.66;5010624;28;20479;-73
2022/04/12 07:38:10;;;;;;;10.10;9.47;;;;;;;7.27;43.74;93253.16;5009816;28;20267;-74
2022/04/12 07:40:35;;;;;;;9.20;8.70;;;;;;;7.19;43.42;93259.53;5010184;28;20203;-74
2022/04/12 07:43:01;;;;;;;10.03;9.43;;;;;;;7.20;41.08;93240.38;5009727;28;20215;-74
2022/04/12 07:45:26;;;;;;;9.53;9.13;;;;;;;7.18;40.46;93216.44;5010161;28;20207;-74
2022/04/12 07:47:52;;;;;;;8.27;7.87;;;;;;;7.77;39.98;93254.47;5008987;28;20195;-74
2022/04/12 07:50:17;;;;;;;8.93;8.53;;;;;;;7.85;40.97;93248.06;5026064;28;20203;-74
2022/04/12 07:52:43;;;;;;;10.07;9.57;;;;;;;7.90;39.53;93255.91;5009985;28;20211;-73
2022/04/12 07:55:08;;;;;;;9.70;9.30;;;;;;;7.85;39.05;93248.06;5009923;28;20235;-74
2022/04/12 07:57:34;;;;;;;9.90;9.40;;;;;;;7.96;40.84;93252.31;5025423;28;20206;-73
2022/04/12 07:59:59;;;;;;;9.40;8.90;;;;;;;7.94;38.08;93252.56;5009548;28;20281;-73
2022/04/12 08:02:25;;;;;;;10.57;10.07;;;;;;;8.01;38.45;93241.97;5009089;28;20242;-73
2022/04/12 08:04:50;;;;;;;9.83;9.30;;;;;;;8.11;38.02;93236.84;5009668;28;20307;-73
2022/04/12 08:07:16;;;;;;;8.90;8.57;;;;;;;8.18;38.24;93245.22;5009869;28;20196;-73
2022/04/12 08:09:41;;;;;;;8.97;8.60;;;;;;;8.14;38.02;93234.53;5009125;28;20241;-73
2022/04/12 08:12:06;;;;;;;8.77;8.37;;;;;;;8.13;37.60;93224.38;5008933;28;20195;-73
2022/04/12 08:14:32;;;;;;;8.80;8.50;;;;;;;8.26;38.21;93221.41;5009185;28;20286;-73
2022/04/12 08:16:57;;;;;;;8.47;8.17;;;;;;;8.36;36.26;93223.28;5009041;28;20210;-73
2022/04/12 08:19:23;;;;;;;9.57;9.27;;;;;;;8.19;36.57;93224.19;5008867;28;20242;-73
2022/04/12 08:21:48;;;;;;;8.67;8.37;;;;;;;8.29;37.40;93215.69;5008604;28;20227;-73
2022/04/12 08:24:14;;;;;;;9.13;8.73;;;;;;;8.45;38.51;93216.59;5007889;28;20235;-73
2022/04/12 08:26:39;;;;;;;9.27;8.87;;;;;;;8.31;36.74;93223.25;5009323;28;20222;-73
2022/04/12 08:29:05;;;;;;;10.00;9.50;;;;;;;8.35;37.23;93203.50;5008994;28;20231;-73
2022/04/12 08:31:31;;;;;;;9.70;9.27;;;;;;;8.68;36.04;93208.41;5010023;28;20184;-73
2022/04/12 08:33:56;;;;;;;8.70;8.40;;;;;;;8.98;35.82;93216.38;5009164;28;20230;-73
2022/04/12 08:36:22;;;;;;;9.30;8.90;;;;;;;8.74;36.53;93208.19;5009991;28;20226;-73
2022/04/12 08:38:51;;;;;;;9.30;8.87;;;;;;;8.47;36.84;93214.53;5013533;28;20238;-73
2022/04/12 08:41:21;;;;;;;9.53;9.13;;;;;;;8.76;37.50;93213.13;5013947;28;20187;-74
2022/04/12 08:43:47;;;;;;;9.07;8.67;;;;;;;8.82;39.38;93212.13;5013230;28;20258;-73
2022/04/12 08:46:12;;;;;;;9.60;9.20;;;;;;;8.88;37.32;93203.31;5012430;28;20191;-73
2022/04/12 08:48:39;;;;;;;9.60;9.10;;;;;;;8.56;37.32;93207.81;5012888;28;20262;-73
2022/04/12 08:51:05;;;;;;;9.60;9.20;;;;;;;8.77;37.48;93194.66;5013102;28;20256;-74
2022/04/12 08:53:31;;;;;;;9.20;8.80;;;;;;;8.93;37.07;93190.31;5012550;28;20238;-74
2022/04/12 08:55:57;;;;;;;9.67;9.27;;;;;;;8.75;36.62;93195.94;5013009;28;20179;-74
2022/04/12 08:58:23;;;;;;;8.90;8.40;;;;;;;8.82;36.38;93193.91;5012754;28;20266;-73
2022/04/12 09:00:50;;;;;;;10.70;10.10;;;;;;;8.93;34.72;93193.72;5012280;28;20200;-73
2022/04/12 09:03:16;;;;;;;8.80;8.37;;;;;;;8.86;36.12;93193.13;5011880;28;20231;-74
2022/04/12 09:05:41;;;;;;;9.80;9.40;;;;;;;8.99;36.18;93197.91;5013250;28;20286;-74
2022/04/12 09:08:32;;;;;;;9.70;8.97;;;;;;;8.54;36.21;93194.25;5013073;28;20748;-74
2022/04/12 09:11:01;;;;;;;9.20;8.67;;;;;;;9.03;36.71;93177.31;5012337;28;20191;-74
2022/04/12 09:13:27;;;;;;;9.27;8.77;;;;;;;9.38;36.30;93174.84;5011816;28;20223;-74
2022/04/12 09:15:53;;;;;;;8.60;8.20;;;;;;;9.41;36.83;93174.31;5012143;28;20196;-74
2022/04/12 09:18:37;;;;;;;9.50;9.10;;;;;;;9.47;38.10;93174.09;5012294;28;20262;-74
2022/04/12 09:21:16;;;;;;;9.90;9.40;;;;;;;9.50;36.28;93173.56;5012661;28;20231;-73
2022/04/12 09:23:49;;;;;;;9.57;9.17;;;;;;;9.53;37.27;93180.09;5012299;28;20270;-74
2022/04/12 09:26:29;;;;;;;11.57;10.87;;;;;;;9.46;36.31;93182.16;5027705;28;20195;-74
2022/04/12 09:28:58;;;;;;;8.33;7.97;;;;;;;9.49;35.83;93168.63;5011415;28;20251;-74
2022/04/12 09:31:24;;;;;;;10.33;9.80;;;;;;;9.59;36.04;93179.84;5011073;28;20331;-74
2022/04/12 09:33:51;;;;;;;9.63;9.23;;;;;;;9.09;36.74;93176.31;5012202;28;20258;-75
2022/04/12 09:36:17;;;;;;;9.83;9.43;;;;;;;9.21;36.05;93185.47;5012248;28;20191;-75
2022/04/12 09:38:44;;;;;;;9.83;9.33;;;;;;;9.31;35.81;93174.28;5012315;28;20318;-75
2022/04/12 09:41:20;;;;;;;8.77;8.40;;;;;;;9.48;37.53;93177.47;5011179;28;20194;-75
2022/04/12 09:43:55;;;;;;;9.07;8.67;;;;;;;9.61;36.36;93174.38;5011506;28;20242;-74
2022/04/12 09:46:21;;;;;;;9.73;9.33;;;;;;;9.67;36.59;93168.91;5010751;28;20186;-76
2022/04/12 09:48:48;;;;;;;8.43;8.03;;;;;;;9.67;36.54;93173.31;5009469;28;20231;-74
2022/04/12 09:51:15;;;;;;;9.23;8.73;;;;;;;9.95;37.78;93165.00;5011824;28;20211;-75
2022/04/12 09:53:42;;;;;;;10.67;9.97;;;;;;;9.91;35.40;93166.59;5010661;28;20266;-73
2022/04/12 09:56:24;;;;;;;8.77;8.37;;;;;;;10.09;36.15;93158.25;5011060;28;20191;-74
2022/04/12 09:58:58;;;;;;;9.40;8.80;;;;;;;10.07;36.12;93152.50;5010365;28;20234;-74
2022/04/12 10:01:25;;;;;;;8.97;8.57;;;;;;;10.08;35.94;93150.69;5011230;28;20184;-74
2022/04/12 10:03:53;;;;;;;8.30;8.00;;;;;;;10.00;35.70;93146.75;5011019;28;20239;-74
2022/04/12 10:06:23;;;;;;;9.53;9.20;;;;;;;10.15;36.32;93131.13;5010300;28;20267;-74
2022/04/12 10:08:58;;;;;;;10.07;9.67;;;;;;;10.18;35.01;93146.25;5009051;28;20231;-74
2022/04/12 10:11:24;;;;;;;9.20;8.83;;;;;;;10.22;37.04;93120.41;5010224;28;20271;-74
2022/04/12 10:13:51;;;;;;;9.87;9.47;;;;;;;10.28;37.88;93107.09;5010807;28;20238;-74
2022/04/12 10:16:19;;;;;;;8.13;7.83;;;;;;;10.60;35.59;93130.28;5025302;28;20207;-74
2022/04/12 10:18:45;;;;;;;8.33;8.03;;;;;;;10.35;35.02;93123.25;5010352;28;20227;-74
2022/04/12 10:21:12;;;;;;;9.10;8.80;;;;;;;10.26;35.74;93124.84;5011626;28;20242;-73
2022/04/12 10:23:41;;;;;;;9.20;8.80;;;;;;;10.22;35.48;93087.28;5010351;28;21436;-74
2022/04/12 10:26:07;;;;;;;8.33;8.03;;;;;;;10.02;36.29;93105.56;5011883;28;20227;-74
2022/04/12 10:28:34;;;;;;;8.93;8.57;;;;;;;10.47;35.99;93109.94;5011259;28;20843;-74
2022/04/12 10:31:20;;;;;;;9.20;8.80;;;;;;;10.39;35.80;93103.44;5011680;28;20183;-74
2022/04/12 10:34:01;;;;;;;8.77;8.47;;;;;;;10.38;35.47;93094.03;5011027;28;20223;-74
2022/04/12 10:36:55;;;;;;;9.77;9.17;;;;;;;10.63;36.80;93109.63;5011127;28;20183;-74
2022/04/12 10:39:32;;;;;;;9.37;8.93;;;;;;;10.65;34.60;93110.13;5010199;28;20230;-75
2022/04/12 10:42:11;;;;;;;9.20;8.60;;;;;;;10.71;35.71;93090.78;5011235;28;20197;-73
2022/04/12 10:44:56;;;;;;;8.00;7.70;;;;;;;11.11;35.42;93100.28;5010657;28;20227;-75
2022/04/12 10:47:27;;;;;;;8.90;8.50;;;;;;;10.02;34.54;92925.59;5009302;28;20226;-74
2022/04/12 10:49:54;;;;;;;8.77;8.47;;;;;;;10.95;35.35;93102.19;5010022;28;20234;-74
2022/04/12 10:52:31;;;;;;;8.93;8.63;;;;;;;10.99;36.84;93098.00;5010773;28;20192;-74
2022/04/12 10:54:57;;;;;;;8.80;8.30;;;;;;;10.97;35.46;93079.19;5010135;28;20223;-74
2022/04/12 10:57:24;;;;;;;8.97;8.57;;;;;;;11.16;36.67;93087.97;5011239;28;20206;-74
2022/04/12 10:59:52;;;;;;;8.27;7.97;;;;;;;11.32;36.88;93086.84;5009445;28;20242;-74
2022/04/12 11:02:18;;;;;;;8.73;8.37;;;;;;;11.32;35.09;93089.47;5010183;28;20223;-74
2022/04/12 11:04:44;;;;;;;9.03;8.60;;;;;;;11.05;34.68;93101.38;5009396;28;20219;-74
2022/04/12 11:07:10;;;;;;;8.60;8.17;;;;;;;11.06;34.94;93074.97;5009209;28;20191;-75
2022/04/12 11:09:35;;;;;;;8.27;7.87;;;;;;;11.07;34.79;93063.47;5009411;28;20259;-74
2022/04/12 11:12:02;;;;;;;7.87;7.57;;;;;;;11.41;35.11;93073.19;5010809;28;20215;-74
2022/04/12 11:14:32;;;;;;;8.37;8.07;;;;;;;11.44;35.50;93077.88;5010317;28;20262;-74
2022/04/12 11:17:08;;;;;;;8.63;8.27;;;;;;;11.66;36.29;93086.13;5010756;28;20201;-74
2022/04/12 11:19:48;;;;;;;9.10;8.67;;;;;;;11.44;34.50;93073.41;5009248;28;20752;-75
2022/04/12 11:22:15;;;;;;;7.60;7.30;;;;;;;11.25;34.47;93067.28;5010402;28;20238;-75
2022/04/12 11:24:41;;;;;;;7.80;7.50;;;;;;;11.35;35.05;93067.22;5009219;28;20235;-74
2022/04/12 11:27:11;;;;;;;7.67;7.37;;;;;;;11.31;33.82;93076.66;5010533;28;20196;-75
2022/04/12 11:29:41;;;;;;;7.80;7.50;;;;;;;11.69;35.94;93067.28;5009704;28;20227;-75
2022/04/12 11:32:09;;;;;;;8.83;8.53;;;;;;;11.54;34.61;93057.66;5009532;28;20249;-75
2022/04/12 11:34:37;;;;;;;8.70;8.30;;;;;;;11.81;36.07;93059.84;5009175;28;20311;-75
2022/04/12 11:37:09;;;;;;;7.77;7.47;;;;;;;11.88;35.69;93055.06;5009649;28;20195;-74